createdAt,value
2022-11-05T00:01:29.582Z,99673.37
2022-11-05T00:04:51.516Z,99673.13
2022-11-05T00:08:14.184Z,99663.72
2022-11-05T00:11:18.477Z,99665.28
2022-11-05T00:14:39.861Z,99656.13
2022-11-05T00:17:43.618Z,99655.69
2022-11-05T00:20:46.298Z,99649.28
2022-11-05T00:24:07.803Z,99642.56
2022-11-05T00:27:10.801Z,99657.37
2022-11-05T00:30:24.773Z,99665.22
2022-11-05T00:33:27.657Z,99669.56
2022-11-05T00:36:30.774Z,99682.66
2022-11-05T00:39:34.680Z,99685.03
2022-11-05T00:42:58.593Z,99687.31
2022-11-05T00:46:01.142Z,99681.97
2022-11-05T00:49:41.653Z,99686.81
2022-11-05T00:52:56.443Z,99690.75
2022-11-05T00:56:00.518Z,99693.03
2022-11-05T00:59:03.085Z,99693.00
2022-11-05T01:02:06.149Z,99695.44
2022-11-05T01:05:09.324Z,99699.78
2022-11-05T01:08:13.964Z,99695.81
2022-11-05T01:11:34.465Z,99717.59
2022-11-05T01:14:37.315Z,99710.44
2022-11-05T01:17:39.858Z,99707.28
2022-11-05T01:20:42.832Z,99697.19
2022-11-05T01:23:45.417Z,99695.81
2022-11-05T01:26:48.363Z,99706.16
2022-11-05T01:29:50.897Z,99708.72
2022-11-05T01:32:55.243Z,99709.56
2022-11-05T01:35:58.195Z,99707.06
2022-11-05T01:39:02.154Z,99707.41
2022-11-05T01:42:15.072Z,99712.59
2022-11-05T01:45:24.124Z,99719.13
2022-11-05T01:48:34.089Z,99724.66
2022-11-05T01:51:37.308Z,99719.78
2022-11-05T01:54:40.110Z,99722.25
2022-11-05T01:57:44.132Z,99723.72
2022-11-05T02:00:47.431Z,99720.59
2022-11-05T02:03:58.424Z,99719.81
2022-11-05T02:07:03.217Z,99714.97
2022-11-05T02:10:10.631Z,99725.69
2022-11-05T02:13:13.617Z,99720.25
2022-11-05T02:16:43.883Z,99727.78
2022-11-05T02:20:19.654Z,99727.41
2022-11-05T02:23:44.673Z,99730.88
2022-11-05T02:27:00.242Z,99726.56
2022-11-05T02:30:26.460Z,99722.66
2022-11-05T02:33:57.171Z,99718.34
2022-11-05T02:37:09.471Z,99724.94
2022-11-05T02:40:34.820Z,99721.66
2022-11-05T02:43:47.376Z,99725.91
2022-11-05T02:47:16.990Z,99727.53
2022-11-05T02:50:28.029Z,99721.72
2022-11-05T02:53:58.999Z,99727.31
2022-11-05T02:57:04.908Z,99727.41
2022-11-05T03:00:46.645Z,99726.34
2022-11-05T03:03:54.008Z,99720.00
2022-11-05T03:07:44.230Z,99722.28
2022-11-05T03:10:58.450Z,99721.56
2022-11-05T03:14:27.405Z,99708.91
2022-11-05T03:17:38.789Z,99709.22
2022-11-05T03:20:48.994Z,99713.97
2022-11-05T03:23:56.752Z,99713.22
2022-11-05T03:27:08.011Z,99712.47
2022-11-05T03:30:13.106Z,99709.75
2022-11-05T03:33:21.415Z,99720.81
2022-11-05T03:36:29.692Z,99731.59
2022-11-05T03:39:38.938Z,99729.91
2022-11-05T03:42:46.429Z,99735.59
2022-11-05T03:45:57.500Z,99738.00
2022-11-05T03:49:04.552Z,99735.97
2022-11-05T03:52:17.334Z,99724.38
2022-11-05T03:55:26.797Z,99731.66
2022-11-05T03:58:31.104Z,99738.03
2022-11-05T04:01:33.973Z,99749.09
2022-11-05T04:04:37.382Z,99762.88
2022-11-05T04:07:58.876Z,99763.22
2022-11-05T04:11:20.313Z,99762.41
2022-11-05T04:14:23.117Z,99760.91
2022-11-05T04:17:25.982Z,99769.12
2022-11-05T04:20:47.069Z,99787.22
2022-11-05T04:24:08.428Z,99787.87
2022-11-05T04:27:11.551Z,99779.31
2022-11-05T04:30:19.866Z,99761.84
2022-11-05T04:33:22.526Z,99757.97
2022-11-05T04:36:25.361Z,99775.28
2022-11-05T04:39:27.922Z,99766.72
2022-11-05T04:42:30.729Z,99767.09
2022-11-05T04:45:35.343Z,99767.19
2022-11-05T04:48:39.016Z,99766.63
2022-11-05T04:51:41.552Z,99752.47
2022-11-05T04:54:44.476Z,99753.69
2022-11-05T04:57:51.238Z,99729.81
2022-11-05T05:00:54.222Z,99726.94
2022-11-05T05:03:56.895Z,99735.94
2022-11-05T05:06:59.768Z,99743.81
2022-11-05T05:10:03.931Z,99747.31
2022-11-05T05:13:06.888Z,99753.06
2022-11-05T05:16:17.498Z,99758.94
2022-11-05T05:19:20.424Z,99764.47
2022-11-05T05:22:22.987Z,99768.00
2022-11-05T05:25:25.920Z,99770.81
2022-11-05T05:28:28.611Z,99766.56
2022-11-05T05:31:31.567Z,99768.78
2022-11-05T05:34:34.176Z,99778.69
2022-11-05T05:37:37.111Z,99773.47
2022-11-05T05:40:41.018Z,99785.47
2022-11-05T05:43:44.114Z,99788.16
2022-11-05T05:46:46.746Z,99788.69
2022-11-05T05:49:49.676Z,99784.41
2022-11-05T05:52:53.385Z,99790.06
2022-11-05T05:55:58.856Z,99793.91
2022-11-05T05:59:01.468Z,99799.88
2022-11-05T06:02:04.522Z,99802.56
2022-11-05T06:05:08.093Z,99812.72
2022-11-05T06:08:10.697Z,99810.63
2022-11-05T06:11:13.963Z,99804.00
2022-11-05T06:14:16.570Z,99805.16
2022-11-05T06:17:19.386Z,99817.37
2022-11-05T06:20:22.333Z,99819.28
2022-11-05T06:23:25.170Z,99831.16
2022-11-05T06:26:28.478Z,99835.50
2022-11-05T06:29:31.565Z,99847.22
2022-11-05T06:32:34.069Z,99852.78
2022-11-05T06:35:36.969Z,99853.59
2022-11-05T06:38:39.824Z,99857.72
2022-11-05T06:42:12.006Z,99856.94
2022-11-05T06:45:07.987Z,99857.84
2022-11-05T06:48:11.271Z,99859.47
2022-11-05T06:51:13.749Z,99876.81
2022-11-05T06:54:16.694Z,99881.56
2022-11-05T06:57:19.232Z,99885.94
2022-11-05T07:00:22.744Z,99877.63
2022-11-05T07:03:26.417Z,99875.34
2022-11-05T07:06:34.367Z,99875.81
2022-11-05T07:09:42.698Z,99890.09
2022-11-05T07:12:45.653Z,99893.22
2022-11-05T07:15:48.274Z,99898.44
2022-11-05T07:18:53.060Z,99904.78
2022-11-05T07:21:55.640Z,99901.28
2022-11-05T07:24:58.610Z,99909.66
2022-11-05T07:28:01.487Z,99904.91
2022-11-05T07:31:05.668Z,99904.19
2022-11-05T07:34:09.230Z,99899.94
2022-11-05T07:37:12.230Z,99903.56
2022-11-05T07:40:16.475Z,99881.72
2022-11-05T07:43:20.022Z,99874.75
2022-11-05T07:46:22.619Z,99870.94
2022-11-05T07:49:26.217Z,99873.25
2022-11-05T07:52:28.716Z,99872.88
2022-11-05T07:55:32.050Z,99882.62
2022-11-05T07:58:37.134Z,99881.13
2022-11-05T08:01:40.291Z,99865.72
2022-11-05T08:04:43.244Z,99869.47
2022-11-05T08:07:45.819Z,99885.00
2022-11-05T08:10:48.661Z,99886.47
2022-11-05T08:13:52.245Z,99885.19
2022-11-05T08:16:55.137Z,99889.91
2022-11-05T08:19:57.710Z,99898.38
2022-11-05T08:23:00.724Z,99895.25
2022-11-05T08:26:04.729Z,99890.75
2022-11-05T08:29:09.922Z,99904.34
2022-11-05T08:32:12.592Z,99898.00
2022-11-05T08:35:15.514Z,99896.06
2022-11-05T08:38:20.244Z,99899.25
2022-11-05T08:41:23.308Z,99890.62
2022-11-05T08:44:25.954Z,99890.31
2022-11-05T08:47:30.132Z,99890.78
2022-11-05T08:50:34.006Z,99866.38
2022-11-05T08:53:36.846Z,99897.50
2022-11-05T08:56:40.072Z,99905.97
2022-11-05T08:59:42.998Z,99900.69
2022-11-05T09:02:46.000Z,99912.91
2022-11-05T09:05:48.939Z,99914.88
2022-11-05T09:08:51.603Z,99923.16
2022-11-05T09:15:17.250Z,99922.03
2022-11-05T09:18:21.174Z,99920.72
2022-11-05T09:21:23.842Z,99916.84
2022-11-05T09:24:27.946Z,99915.22
2022-11-05T09:27:30.555Z,99919.56
2022-11-05T09:30:33.416Z,99920.78
2022-11-05T09:33:37.870Z,99912.47
2022-11-05T09:36:40.856Z,99901.91
2022-11-05T09:39:44.497Z,99915.06
2022-11-05T09:42:50.397Z,99910.75
2022-11-05T09:45:57.089Z,99905.66
2022-11-05T09:49:06.153Z,99913.91
2022-11-05T09:52:22.747Z,99888.94
2022-11-05T09:55:36.050Z,99897.69
2022-11-05T09:58:47.696Z,99899.72
2022-11-05T10:01:52.959Z,99883.25
2022-11-05T10:05:09.376Z,99882.38
2022-11-05T10:08:19.366Z,99896.06
2022-11-05T10:11:30.683Z,99874.78
2022-11-05T10:14:39.287Z,99867.84
2022-11-05T10:17:47.230Z,99862.00
2022-11-05T10:20:49.807Z,99867.66
2022-11-05T10:23:53.027Z,99861.38
2022-11-05T10:26:56.519Z,99858.56
2022-11-05T10:30:00.416Z,99868.06
2022-11-05T10:33:06.839Z,99875.16
2022-11-05T10:36:32.459Z,99879.87
2022-11-05T10:39:35.306Z,99882.50
2022-11-05T10:43:26.317Z,99887.97
2022-11-05T10:46:45.507Z,99901.75
2022-11-05T10:50:04.187Z,99899.22
2022-11-05T10:53:21.774Z,99915.00
2022-11-05T10:56:36.749Z,99915.69
2022-11-05T10:59:44.690Z,99906.22
2022-11-05T11:02:56.948Z,99909.91
2022-11-05T11:06:01.481Z,99902.78
2022-11-05T11:09:17.915Z,99916.75
2022-11-05T11:12:24.054Z,99907.22
2022-11-05T11:15:35.318Z,99903.63
2022-11-05T11:18:40.483Z,99898.56
2022-11-05T11:21:43.534Z,99904.09
2022-11-05T11:24:49.624Z,99900.09
2022-11-05T11:27:53.424Z,99895.00
2022-11-05T11:31:05.206Z,99902.56
2022-11-05T11:34:22.779Z,99899.03
2022-11-05T11:37:37.561Z,99897.06
2022-11-05T11:40:40.762Z,99910.56
2022-11-05T11:43:45.201Z,99901.44
2022-11-05T11:46:52.446Z,99902.69
2022-11-05T11:49:57.870Z,99895.59
2022-11-05T11:53:36.222Z,99903.91
2022-11-05T11:56:47.378Z,99903.13
2022-11-05T12:03:46.037Z,99898.03
2022-11-05T12:07:10.010Z,99905.16
2022-11-05T12:10:30.937Z,99915.56
2022-11-05T12:13:43.045Z,99908.81
2022-11-05T12:17:21.569Z,99916.75
2022-11-05T12:20:58.372Z,99916.00
2022-11-05T12:24:31.092Z,99906.94
2022-11-05T12:27:48.815Z,99912.88
2022-11-05T12:31:32.794Z,99910.53
2022-11-05T12:35:23.124Z,99918.88
2022-11-05T12:39:13.507Z,99914.50
2022-11-05T12:42:54.400Z,99912.50
2022-11-05T12:46:26.324Z,99916.87
2022-11-05T12:49:49.643Z,99922.88
2022-11-05T12:53:01.354Z,99929.62
2022-11-05T12:56:18.280Z,99935.56
2022-11-05T12:59:28.184Z,99936.75
2022-11-05T13:02:34.641Z,99932.75
2022-11-05T13:05:45.444Z,99926.84
2022-11-05T13:09:15.929Z,99950.66
2022-11-05T13:12:24.946Z,99947.87
2022-11-05T13:15:39.080Z,99956.19
2022-11-05T13:18:56.800Z,99949.38
2022-11-05T13:22:28.587Z,99958.09
2022-11-05T13:25:38.034Z,99963.22
2022-11-05T13:28:48.395Z,99959.62
2022-11-05T13:32:32.484Z,99968.75
2022-11-05T13:35:46.378Z,99958.03
2022-11-05T13:38:59.925Z,99974.31
2022-11-05T13:42:46.087Z,99969.53
2022-11-05T13:46:06.078Z,99975.47
2022-11-05T13:49:36.797Z,99974.66
2022-11-05T13:52:46.642Z,99980.53
2022-11-05T13:55:58.868Z,99983.38
2022-11-05T13:59:17.003Z,99997.94
2022-11-05T14:02:29.304Z,99991.16
2022-11-05T14:05:41.883Z,99984.81
2022-11-05T14:08:46.574Z,100001.81
2022-11-05T14:11:54.007Z,99992.28
2022-11-05T14:15:03.746Z,99994.25
2022-11-05T14:18:35.126Z,100002.91
2022-11-05T14:21:52.466Z,100014.81
2022-11-05T14:24:56.861Z,100025.06
2022-11-05T14:28:00.253Z,100021.06
2022-11-05T14:31:47.253Z,100018.66
2022-11-05T14:35:21.342Z,100018.25
2022-11-05T14:38:27.873Z,100031.69
2022-11-05T14:41:30.951Z,100038.84
2022-11-05T14:44:35.928Z,100032.84
2022-11-05T14:47:43.009Z,100026.06
2022-11-05T14:50:46.631Z,100038.31
2022-11-05T14:53:50.078Z,100029.19
2022-11-05T14:56:56.503Z,100037.09
2022-11-05T15:00:01.156Z,100050.50
2022-11-05T15:03:29.327Z,100044.97
2022-11-05T15:06:37.431Z,100052.06
2022-11-05T15:09:41.818Z,100046.91
2022-11-05T15:12:52.700Z,100048.84
2022-11-05T15:15:56.806Z,100065.50
2022-11-05T15:19:00.400Z,100064.22
2022-11-05T15:22:19.969Z,100067.37
2022-11-05T15:25:53.491Z,100066.53
2022-11-05T15:28:58.360Z,100072.03
2022-11-05T15:32:01.625Z,100073.19
2022-11-05T15:35:23.660Z,100066.78
2022-11-05T15:38:35.062Z,100070.78
2022-11-05T15:41:38.693Z,100080.28
2022-11-05T15:44:43.964Z,100066.03
2022-11-05T15:47:47.259Z,100074.72
2022-11-05T15:50:50.276Z,100082.31
2022-11-05T15:57:30.096Z,100071.16
2022-11-05T16:00:35.687Z,100084.63
2022-11-05T16:03:42.532Z,100084.63
2022-11-05T16:06:50.321Z,100090.19
2022-11-05T16:10:01.591Z,100083.91
2022-11-05T16:13:34.115Z,100095.81
2022-11-05T16:16:37.386Z,100090.63
2022-11-05T16:19:42.296Z,100095.38
2022-11-05T16:22:47.794Z,100090.63
2022-11-05T16:25:51.196Z,100095.38
2022-11-05T16:28:54.843Z,100098.50
2022-11-05T16:32:01.715Z,100104.87
2022-11-05T16:35:06.839Z,100105.56
2022-11-05T16:38:13.030Z,100112.69
2022-11-05T16:41:20.367Z,100107.94
2022-11-05T16:44:23.535Z,100117.75
2022-11-05T16:47:26.979Z,100115.06
2022-11-05T16:50:33.106Z,100116.94
2022-11-05T16:53:36.081Z,100122.97
2022-11-05T16:56:40.484Z,100128.84
2022-11-05T16:59:44.016Z,100124.56
2022-11-05T17:02:50.012Z,100128.37
2022-11-05T17:05:53.069Z,100130.81
2022-11-05T17:08:55.746Z,100127.97
2022-11-05T17:12:01.192Z,100135.44
2022-11-05T17:15:23.276Z,100140.88
2022-11-05T17:18:26.648Z,100140.06
2022-11-05T17:21:29.751Z,100148.78
2022-11-05T17:24:32.991Z,100154.34
2022-11-05T17:27:35.917Z,100155.94
2022-11-05T17:30:41.700Z,100158.16
2022-11-05T17:33:45.360Z,100153.47
2022-11-05T17:36:48.630Z,100159.31
2022-11-05T17:39:52.550Z,100159.63
2022-11-05T17:42:55.642Z,100166.03
2022-11-05T17:46:04.276Z,100166.31
2022-11-05T17:49:08.080Z,100167.53
2022-11-05T17:52:11.355Z,100169.84
2022-11-05T17:55:18.921Z,100171.03
2022-11-05T17:58:21.709Z,100184.84
2022-11-05T18:01:30.897Z,100173.69
2022-11-05T18:04:34.297Z,100183.00
2022-11-05T18:07:37.431Z,100189.44
2022-11-05T18:10:41.653Z,100183.19
2022-11-05T18:13:44.679Z,100181.66
2022-11-05T18:16:48.201Z,100196.22
2022-11-05T18:19:50.754Z,100194.91
2022-11-05T18:22:56.829Z,100202.87
2022-11-05T18:26:01.397Z,100199.28
2022-11-05T18:29:06.766Z,100190.84
2022-11-05T18:32:10.184Z,100202.09
2022-11-05T18:35:14.674Z,100207.94
2022-11-05T18:38:17.549Z,100208.50
2022-11-05T18:41:22.003Z,100206.59
2022-11-05T18:44:25.533Z,100220.81
2022-11-05T18:47:29.016Z,100222.81
2022-11-05T18:50:32.283Z,100218.72
2022-11-05T18:53:35.846Z,100226.78
2022-11-05T18:56:45.321Z,100231.53
2022-11-05T18:59:48.556Z,100238.66
2022-11-05T19:02:51.357Z,100242.31
2022-11-05T19:05:54.663Z,100252.06
2022-11-05T19:08:57.363Z,100250.16
2022-11-05T19:12:00.778Z,100266.75
2022-11-05T19:15:04.416Z,100263.97
2022-11-05T19:18:07.841Z,100257.75
2022-11-05T19:21:14.472Z,100269.25
2022-11-05T19:24:19.049Z,100273.63
2022-11-05T19:27:22.257Z,100272.03
2022-11-05T19:30:27.595Z,100281.53
2022-11-05T19:33:31.377Z,100289.47
2022-11-05T19:36:34.970Z,100291.06
2022-11-05T19:39:40.294Z,100299.16
2022-11-05T19:42:43.627Z,100298.78
2022-11-05T19:45:46.649Z,100309.41
2022-11-05T19:48:50.322Z,100303.03
2022-11-05T19:51:53.285Z,100300.69
2022-11-05T19:54:56.886Z,100310.91
2022-11-05T19:57:59.988Z,100320.50
2022-11-05T20:01:03.872Z,100320.97
2022-11-05T20:04:07.457Z,100322.03
2022-11-05T20:07:11.557Z,100327.28
2022-11-05T20:10:17.330Z,100335.47
2022-11-05T20:13:20.310Z,100340.97
2022-11-05T20:16:37.452Z,100343.44
2022-11-05T20:19:45.596Z,100347.00
2022-11-05T20:22:53.030Z,100346.28
2022-11-05T20:25:55.972Z,100355.37
2022-11-05T20:28:59.344Z,100354.66
2022-11-05T20:32:02.821Z,100350.81
2022-11-05T20:35:06.604Z,100353.59
2022-11-05T20:38:10.157Z,100358.06
2022-11-05T20:41:13.798Z,100355.75
2022-11-05T20:44:19.016Z,100351.75
2022-11-05T20:47:22.282Z,100354.41
2022-11-05T20:50:25.173Z,100362.66
2022-11-05T20:53:28.543Z,100362.66
2022-11-05T20:56:35.116Z,100373.41
2022-11-05T20:59:40.333Z,100374.94
2022-11-05T21:02:43.574Z,100367.03
2022-11-05T21:05:50.003Z,100370.69
2022-11-05T21:08:56.706Z,100362.13
2022-11-05T21:12:12.316Z,100363.16
2022-11-05T21:15:15.647Z,100369.00
2022-11-05T21:18:20.382Z,100375.87
2022-11-05T21:21:23.581Z,100372.22
2022-11-05T21:24:26.867Z,100371.84
2022-11-05T21:27:29.799Z,100371.91
2022-11-05T21:30:33.486Z,100375.28
2022-11-05T21:33:36.319Z,100364.03
2022-11-05T21:36:40.880Z,100363.97
2022-11-05T21:39:44.611Z,100372.28
2022-11-05T21:42:49.603Z,100370.88
2022-11-05T21:45:53.199Z,100370.91
2022-11-05T21:48:56.816Z,100363.78
2022-11-05T21:52:18.297Z,100363.78
2022-11-05T21:55:42.818Z,100372.63
2022-11-05T21:59:04.261Z,100365.19
2022-11-05T22:02:09.085Z,100372.63
2022-11-05T22:05:12.395Z,100380.28
2022-11-05T22:08:15.433Z,100372.34
2022-11-05T22:11:18.560Z,100378.69
2022-11-05T22:14:21.386Z,100376.22
2022-11-05T22:17:24.498Z,100377.75
2022-11-05T22:20:27.088Z,100377.75
2022-11-05T22:23:29.953Z,100383.25
2022-11-05T22:26:33.260Z,100382.78
2022-11-05T22:29:37.035Z,100376.16
2022-11-05T22:32:39.672Z,100373.44
2022-11-05T22:35:42.588Z,100370.62
2022-11-05T22:38:45.393Z,100364.38
2022-11-05T22:41:48.582Z,100359.37
2022-11-05T22:44:51.251Z,100368.94
2022-11-05T22:47:54.063Z,100371.34
2022-11-05T22:51:01.905Z,100370.78
2022-11-05T22:54:06.226Z,100368.81
2022-11-05T22:57:08.864Z,100378.47
2022-11-05T23:00:18.720Z,100373.44
2022-11-05T23:03:22.473Z,100367.47
2022-11-05T23:06:49.576Z,100375.41
2022-11-05T23:10:10.572Z,100373.00
2022-11-05T23:13:13.390Z,100375.13
2022-11-05T23:16:34.370Z,100381.59
2022-11-05T23:19:55.952Z,100385.41
2022-11-05T23:23:17.623Z,100384.06
2022-11-05T23:26:42.894Z,100381.16
2022-11-05T23:29:45.513Z,100377.22
2022-11-05T23:32:50.146Z,100389.91
2022-11-05T23:36:11.546Z,100387.97
2022-11-05T23:39:14.505Z,100386.31
2022-11-05T23:42:36.158Z,100378.88
2022-11-05T23:45:52.644Z,100387.25
2022-11-05T23:48:55.242Z,100384.69
2022-11-05T23:52:00.514Z,100389.37
2022-11-05T23:55:03.605Z,100386.22
2022-11-05T23:58:07.649Z,100396.22
